sensor_id;sensor_type;location;lat;lon;timestamp;P1;durP1;ratioP1;P2;durP2;ratioP2
50225;SDS011;36113;50.742;6.432;2024-03-08T00:01:35;29.65;;;20.70;;
50225;SDS011;36113;50.742;6.432;2024-03-08T00:04:00;31.60;;;20.90;;
50225;SDS011;36113;50.742;6.432;2024-03-08T00:06:25;28.48;;;20.42;;
50225;SDS011;36113;50.742;6.432;2024-03-08T00:08:51;27.25;;;20.63;;
50225;SDS011;36113;50.742;6.432;2024-03-08T00:11:16;26.88;;;18.95;;
50225;SDS011;36113;50.742;6.432;2024-03-08T00:13:41;33.70;;;21.25;;
50225;SDS011;36113;50.742;6.432;2024-03-08T00:16:07;30.83;;;20.55;;
50225;SDS011;36113;50.742;6.432;2024-03-08T00:18:34;36.40;;;20.92;;
50225;SDS011;36113;50.742;6.432;2024-03-08T00:20:59;28.60;;;20.95;;
50225;SDS011;36113;50.742;6.432;2024-03-08T00:23:25;31.08;;;20.73;;
50225;SDS011;36113;50.742;6.432;2024-03-08T00:25:50;32.80;;;21.27;;
50225;SDS011;36113;50.742;6.432;2024-03-08T00:28:16;31.45;;;22.02;;
50225;SDS011;36113;50.742;6.432;2024-03-08T00:30:43;28.10;;;20.50;;
50225;SDS011;36113;50.742;6.432;2024-03-08T00:33:10;30.20;;;21.25;;
50225;SDS011;36113;50.742;6.432;2024-03-08T00:35:35;29.85;;;20.45;;
50225;SDS011;36113;50.742;6.432;2024-03-08T00:38:01;30.75;;;20.60;;
50225;SDS011;36113;50.742;6.432;2024-03-08T00:40:26;30.75;;;19.45;;
50225;SDS011;36113;50.742;6.432;2024-03-08T00:42:51;32.90;;;22.20;;
50225;SDS011;36113;50.742;6.432;2024-03-08T00:45:18;29.35;;;20.85;;
50225;SDS011;36113;50.742;6.432;2024-03-08T00:47:43;29.00;;;21.00;;
50225;SDS011;36113;50.742;6.432;2024-03-08T00:50:09;27.00;;;20.02;;
50225;SDS011;36113;50.742;6.432;2024-03-08T00:52:34;31.77;;;21.60;;
50225;SDS011;36113;50.742;6.432;2024-03-08T00:55:00;29.77;;;20.83;;
50225;SDS011;36113;50.742;6.432;2024-03-08T00:57:25;30.85;;;21.50;;
50225;SDS011;36113;50.742;6.432;2024-03-08T00:59:51;31.75;;;20.65;;
50225;SDS011;36113;50.742;6.432;2024-03-08T01:02:17;31.58;;;21.50;;
50225;SDS011;36113;50.742;6.432;2024-03-08T01:04:44;32.70;;;22.07;;
50225;SDS011;36113;50.742;6.432;2024-03-08T01:07:09;25.88;;;20.45;;
50225;SDS011;36113;50.742;6.432;2024-03-08T01:09:35;30.65;;;20.17;;
50225;SDS011;36113;50.742;6.432;2024-03-08T01:12:01;29.90;;;20.35;;
50225;SDS011;36113;50.742;6.432;2024-03-08T01:14:26;32.75;;;21.73;;
50225;SDS011;36113;50.742;6.432;2024-03-08T01:16:51;34.42;;;22.10;;
50225;SDS011;36113;50.742;6.432;2024-03-08T01:19:17;29.83;;;21.05;;
50225;SDS011;36113;50.742;6.432;2024-03-08T01:21:43;35.10;;;22.08;;
50225;SDS011;36113;50.742;6.432;2024-03-08T01:24:08;32.40;;;22.23;;
50225;SDS011;36113;50.742;6.432;2024-03-08T01:26:34;35.40;;;21.33;;
50225;SDS011;36113;50.742;6.432;2024-03-08T01:28:59;29.75;;;20.65;;
50225;SDS011;36113;50.742;6.432;2024-03-08T01:33:53;30.67;;;21.05;;
50225;SDS011;36113;50.742;6.432;2024-03-08T01:36:19;34.00;;;21.65;;
50225;SDS011;36113;50.742;6.432;2024-03-08T01:38:44;30.70;;;21.67;;
50225;SDS011;36113;50.742;6.432;2024-03-08T01:41:10;32.72;;;21.58;;
50225;SDS011;36113;50.742;6.432;2024-03-08T01:43:35;33.50;;;21.00;;
50225;SDS011;36113;50.742;6.432;2024-03-08T01:46:00;31.05;;;20.85;;
50225;SDS011;36113;50.742;6.432;2024-03-08T01:48:27;34.25;;;22.75;;
50225;SDS011;36113;50.742;6.432;2024-03-08T01:50:54;28.73;;;20.20;;
50225;SDS011;36113;50.742;6.432;2024-03-08T01:53:21;35.17;;;22.45;;
50225;SDS011;36113;50.742;6.432;2024-03-08T01:55:48;32.78;;;22.83;;
50225;SDS011;36113;50.742;6.432;2024-03-08T01:58:14;32.93;;;21.37;;
50225;SDS011;36113;50.742;6.432;2024-03-08T02:00:46;33.50;;;22.52;;
50225;SDS011;36113;50.742;6.432;2024-03-08T02:03:14;33.72;;;22.02;;
50225;SDS011;36113;50.742;6.432;2024-03-08T02:05:40;29.83;;;20.80;;
50225;SDS011;36113;50.742;6.432;2024-03-08T02:08:06;27.75;;;21.23;;
50225;SDS011;36113;50.742;6.432;2024-03-08T02:10:33;31.45;;;21.58;;
50225;SDS011;36113;50.742;6.432;2024-03-08T02:12:59;29.48;;;21.00;;
50225;SDS011;36113;50.742;6.432;2024-03-08T02:15:26;29.92;;;20.65;;
50225;SDS011;36113;50.742;6.432;2024-03-08T02:17:51;29.45;;;20.10;;
50225;SDS011;36113;50.742;6.432;2024-03-08T02:20:18;30.23;;;20.42;;
50225;SDS011;36113;50.742;6.432;2024-03-08T02:22:44;33.03;;;21.53;;
50225;SDS011;36113;50.742;6.432;2024-03-08T02:25:10;34.63;;;21.38;;
50225;SDS011;36113;50.742;6.432;2024-03-08T02:27:36;31.00;;;21.02;;
50225;SDS011;36113;50.742;6.432;2024-03-08T02:30:02;33.03;;;20.27;;
50225;SDS011;36113;50.742;6.432;2024-03-08T02:32:27;27.45;;;19.02;;
50225;SDS011;36113;50.742;6.432;2024-03-08T02:34:56;34.03;;;20.45;;
50225;SDS011;36113;50.742;6.432;2024-03-08T02:37:24;28.73;;;20.63;;
50225;SDS011;36113;50.742;6.432;2024-03-08T02:39:50;30.38;;;20.25;;
50225;SDS011;36113;50.742;6.432;2024-03-08T02:42:15;25.40;;;18.95;;
50225;SDS011;36113;50.742;6.432;2024-03-08T02:44:43;31.45;;;20.38;;
50225;SDS011;36113;50.742;6.432;2024-03-08T02:47:12;27.45;;;19.20;;
50225;SDS011;36113;50.742;6.432;2024-03-08T02:49:37;28.60;;;19.90;;
50225;SDS011;36113;50.742;6.432;2024-03-08T02:52:03;33.65;;;21.00;;
50225;SDS011;36113;50.742;6.432;2024-03-08T02:56:55;28.95;;;18.88;;
50225;SDS011;36113;50.742;6.432;2024-03-08T02:59:20;31.13;;;20.30;;
50225;SDS011;36113;50.742;6.432;2024-03-08T03:01:45;27.13;;;19.90;;
50225;SDS011;36113;50.742;6.432;2024-03-08T03:04:11;28.02;;;19.83;;
50225;SDS011;36113;50.742;6.432;2024-03-08T03:06:36;31.77;;;20.92;;
50225;SDS011;36113;50.742;6.432;2024-03-08T03:09:01;29.67;;;20.52;;
50225;SDS011;36113;50.742;6.432;2024-03-08T03:11:27;34.30;;;21.77;;
50225;SDS011;36113;50.742;6.432;2024-03-08T03:13:52;30.90;;;19.30;;
50225;SDS011;36113;50.742;6.432;2024-03-08T03:16:18;32.80;;;20.67;;
50225;SDS011;36113;50.742;6.432;2024-03-08T03:18:47;29.40;;;19.67;;
50225;SDS011;36113;50.742;6.432;2024-03-08T03:21:14;38.85;;;21.73;;
50225;SDS011;36113;50.742;6.432;2024-03-08T03:23:39;28.42;;;19.60;;
50225;SDS011;36113;50.742;6.432;2024-03-08T03:26:06;27.60;;;18.27;;
50225;SDS011;36113;50.742;6.432;2024-03-08T03:28:37;26.58;;;19.35;;
50225;SDS011;36113;50.742;6.432;2024-03-08T03:33:29;32.97;;;20.77;;
50225;SDS011;36113;50.742;6.432;2024-03-08T03:35:55;34.42;;;19.38;;
50225;SDS011;36113;50.742;6.432;2024-03-08T03:38:20;30.52;;;20.73;;
50225;SDS011;36113;50.742;6.432;2024-03-08T03:40:48;29.98;;;18.70;;
50225;SDS011;36113;50.742;6.432;2024-03-08T03:43:17;34.13;;;21.27;;
50225;SDS011;36113;50.742;6.432;2024-03-08T03:45:42;30.35;;;20.08;;
50225;SDS011;36113;50.742;6.432;2024-03-08T03:48:07;29.60;;;18.85;;
50225;SDS011;36113;50.742;6.432;2024-03-08T03:50:36;33.95;;;20.95;;
50225;SDS011;36113;50.742;6.432;2024-03-08T03:53:01;28.23;;;18.55;;
50225;SDS011;36113;50.742;6.432;2024-03-08T03:55:27;34.97;;;22.23;;
50225;SDS011;36113;50.742;6.432;2024-03-08T03:57:53;28.55;;;18.42;;
50225;SDS011;36113;50.742;6.432;2024-03-08T04:00:19;35.17;;;21.02;;
50225;SDS011;36113;50.742;6.432;2024-03-08T04:02:44;33.45;;;20.70;;
50225;SDS011;36113;50.742;6.432;2024-03-08T04:05:10;31.23;;;20.55;;
50225;SDS011;36113;50.742;6.432;2024-03-08T04:07:36;36.50;;;22.83;;
50225;SDS011;36113;50.742;6.432;2024-03-08T04:10:02;32.50;;;20.57;;
50225;SDS011;36113;50.742;6.432;2024-03-08T04:12:28;34.33;;;21.07;;
50225;SDS011;36113;50.742;6.432;2024-03-08T04:14:54;30.75;;;19.90;;
50225;SDS011;36113;50.742;6.432;2024-03-08T04:17:20;29.48;;;19.88;;
50225;SDS011;36113;50.742;6.432;2024-03-08T04:19:46;28.80;;;18.73;;
50225;SDS011;36113;50.742;6.432;2024-03-08T04:24:38;27.85;;;18.40;;
50225;SDS011;36113;50.742;6.432;2024-03-08T04:27:05;32.03;;;20.08;;
50225;SDS011;36113;50.742;6.432;2024-03-08T04:29:30;32.30;;;19.90;;
50225;SDS011;36113;50.742;6.432;2024-03-08T04:31:57;29.98;;;19.67;;
50225;SDS011;36113;50.742;6.432;2024-03-08T04:34:23;28.98;;;19.55;;
50225;SDS011;36113;50.742;6.432;2024-03-08T04:36:49;31.88;;;20.30;;
50225;SDS011;36113;50.742;6.432;2024-03-08T04:39:14;31.05;;;19.58;;
50225;SDS011;36113;50.742;6.432;2024-03-08T04:41:40;31.85;;;20.75;;
50225;SDS011;36113;50.742;6.432;2024-03-08T04:44:08;36.97;;;21.23;;
50225;SDS011;36113;50.742;6.432;2024-03-08T04:46:34;32.22;;;21.25;;
50225;SDS011;36113;50.742;6.432;2024-03-08T04:49:00;33.38;;;20.50;;
50225;SDS011;36113;50.742;6.432;2024-03-08T04:51:26;31.48;;;20.10;;
50225;SDS011;36113;50.742;6.432;2024-03-08T04:53:51;34.97;;;21.38;;
50225;SDS011;36113;50.742;6.432;2024-03-08T04:56:16;34.08;;;20.40;;
50225;SDS011;36113;50.742;6.432;2024-03-08T04:58:44;30.42;;;19.10;;
50225;SDS011;36113;50.742;6.432;2024-03-08T05:01:11;31.13;;;20.00;;
50225;SDS011;36113;50.742;6.432;2024-03-08T05:03:37;32.13;;;20.08;;
50225;SDS011;36113;50.742;6.432;2024-03-08T05:06:03;30.98;;;20.70;;
50225;SDS011;36113;50.742;6.432;2024-03-08T05:08:29;33.03;;;20.63;;
50225;SDS011;36113;50.742;6.432;2024-03-08T05:10:54;38.15;;;22.40;;
50225;SDS011;36113;50.742;6.432;2024-03-08T05:13:19;37.38;;;21.25;;
50225;SDS011;36113;50.742;6.432;2024-03-08T05:15:47;33.58;;;20.95;;
50225;SDS011;36113;50.742;6.432;2024-03-08T05:18:14;35.70;;;22.33;;
50225;SDS011;36113;50.742;6.432;2024-03-08T05:20:40;33.13;;;20.55;;
50225;SDS011;36113;50.742;6.432;2024-03-08T05:23:06;34.05;;;20.80;;
50225;SDS011;36113;50.742;6.432;2024-03-08T05:25:31;33.20;;;21.52;;
50225;SDS011;36113;50.742;6.432;2024-03-08T05:27:57;34.17;;;22.00;;
50225;SDS011;36113;50.742;6.432;2024-03-08T05:30:23;33.50;;;21.25;;
50225;SDS011;36113;50.742;6.432;2024-03-08T05:32:48;30.88;;;20.77;;
50225;SDS011;36113;50.742;6.432;2024-03-08T05:35:13;32.97;;;21.65;;
50225;SDS011;36113;50.742;6.432;2024-03-08T05:37:41;35.22;;;19.98;;
50225;SDS011;36113;50.742;6.432;2024-03-08T05:40:07;30.77;;;21.08;;
50225;SDS011;36113;50.742;6.432;2024-03-08T05:42:37;35.28;;;21.65;;
50225;SDS011;36113;50.742;6.432;2024-03-08T05:45:03;30.10;;;19.55;;
50225;SDS011;36113;50.742;6.432;2024-03-08T05:47:31;34.80;;;20.42;;
50225;SDS011;36113;50.742;6.432;2024-03-08T05:49:57;33.20;;;21.38;;
50225;SDS011;36113;50.742;6.432;2024-03-08T05:52:23;35.25;;;21.35;;
50225;SDS011;36113;50.742;6.432;2024-03-08T05:54:48;33.50;;;20.83;;
50225;SDS011;36113;50.742;6.432;2024-03-08T05:57:13;34.17;;;20.67;;
50225;SDS011;36113;50.742;6.432;2024-03-08T05:59:39;33.05;;;20.80;;
50225;SDS011;36113;50.742;6.432;2024-03-08T06:02:04;33.97;;;21.13;;
50225;SDS011;36113;50.742;6.432;2024-03-08T06:04:30;33.92;;;19.55;;
50225;SDS011;36113;50.742;6.432;2024-03-08T06:06:56;33.75;;;20.88;;
50225;SDS011;36113;50.742;6.432;2024-03-08T06:11:48;34.38;;;20.83;;
50225;SDS011;36113;50.742;6.432;2024-03-08T06:14:14;36.28;;;21.67;;
50225;SDS011;36113;50.742;6.432;2024-03-08T06:16:43;35.42;;;20.73;;
50225;SDS011;36113;50.742;6.432;2024-03-08T06:19:09;35.47;;;21.73;;
50225;SDS011;36113;50.742;6.432;2024-03-08T06:21:35;36.40;;;21.75;;
50225;SDS011;36113;50.742;6.432;2024-03-08T06:24:00;38.90;;;21.95;;
50225;SDS011;36113;50.742;6.432;2024-03-08T06:26:26;40.25;;;21.17;;
50225;SDS011;36113;50.742;6.432;2024-03-08T06:28:53;35.95;;;21.77;;
50225;SDS011;36113;50.742;6.432;2024-03-08T06:31:19;37.70;;;21.67;;
50225;SDS011;36113;50.742;6.432;2024-03-08T06:33:44;36.70;;;22.42;;
50225;SDS011;36113;50.742;6.432;2024-03-08T06:36:10;35.55;;;20.50;;
50225;SDS011;36113;50.742;6.432;2024-03-08T06:38:37;37.40;;;20.55;;
50225;SDS011;36113;50.742;6.432;2024-03-08T06:41:07;38.92;;;22.05;;
50225;SDS011;36113;50.742;6.432;2024-03-08T06:43:32;37.58;;;22.23;;
50225;SDS011;36113;50.742;6.432;2024-03-08T06:45:59;34.95;;;21.25;;
50225;SDS011;36113;50.742;6.432;2024-03-08T06:48:24;35.80;;;21.08;;
50225;SDS011;36113;50.742;6.432;2024-03-08T06:50:50;34.80;;;21.88;;
50225;SDS011;36113;50.742;6.432;2024-03-08T06:53:15;35.63;;;21.77;;
50225;SDS011;36113;50.742;6.432;2024-03-08T06:55:44;35.75;;;21.10;;
50225;SDS011;36113;50.742;6.432;2024-03-08T06:58:09;35.15;;;21.88;;
50225;SDS011;36113;50.742;6.432;2024-03-08T07:00:35;32.23;;;20.80;;
50225;SDS011;36113;50.742;6.432;2024-03-08T07:03:01;33.00;;;21.48;;
50225;SDS011;36113;50.742;6.432;2024-03-08T07:05:27;35.03;;;20.42;;
50225;SDS011;36113;50.742;6.432;2024-03-08T07:07:53;31.70;;;21.50;;
50225;SDS011;36113;50.742;6.432;2024-03-08T07:10:19;32.53;;;21.50;;
50225;SDS011;36113;50.742;6.432;2024-03-08T07:12:46;34.50;;;21.48;;
50225;SDS011;36113;50.742;6.432;2024-03-08T07:15:11;40.22;;;22.40;;
50225;SDS011;36113;50.742;6.432;2024-03-08T07:17:41;38.70;;;22.13;;
50225;SDS011;36113;50.742;6.432;2024-03-08T07:20:09;31.25;;;21.25;;
50225;SDS011;36113;50.742;6.432;2024-03-08T07:22:38;31.45;;;20.90;;
50225;SDS011;36113;50.742;6.432;2024-03-08T07:25:04;34.10;;;21.15;;
50225;SDS011;36113;50.742;6.432;2024-03-08T07:27:52;33.13;;;20.92;;
50225;SDS011;36113;50.742;6.432;2024-03-08T07:30:19;34.60;;;21.00;;
50225;SDS011;36113;50.742;6.432;2024-03-08T07:33:07;35.67;;;22.52;;
50225;SDS011;36113;50.742;6.432;2024-03-08T07:35:33;36.45;;;21.83;;
50225;SDS011;36113;50.742;6.432;2024-03-08T07:38:02;31.88;;;21.05;;
50225;SDS011;36113;50.742;6.432;2024-03-08T07:40:31;33.55;;;21.77;;
50225;SDS011;36113;50.742;6.432;2024-03-08T07:42:57;33.50;;;21.70;;
50225;SDS011;36113;50.742;6.432;2024-03-08T07:45:23;35.42;;;21.77;;
50225;SDS011;36113;50.742;6.432;2024-03-08T07:47:49;36.47;;;22.10;;
50225;SDS011;36113;50.742;6.432;2024-03-08T07:50:15;31.45;;;19.00;;
50225;SDS011;36113;50.742;6.432;2024-03-08T07:52:41;32.85;;;21.25;;
50225;SDS011;36113;50.742;6.432;2024-03-08T07:55:07;33.50;;;20.70;;
50225;SDS011;36113;50.742;6.432;2024-03-08T07:57:33;30.92;;;20.55;;
50225;SDS011;36113;50.742;6.432;2024-03-08T07:59:58;33.10;;;20.95;;
50225;SDS011;36113;50.742;6.432;2024-03-08T08:02:23;33.50;;;21.20;;
50225;SDS011;36113;50.742;6.432;2024-03-08T08:04:49;34.45;;;22.00;;
50225;SDS011;36113;50.742;6.432;2024-03-08T08:07:14;31.60;;;20.48;;
50225;SDS011;36113;50.742;6.432;2024-03-08T08:09:40;32.25;;;20.52;;
50225;SDS011;36113;50.742;6.432;2024-03-08T08:12:07;40.20;;;22.02;;
50225;SDS011;36113;50.742;6.432;2024-03-08T08:14:35;30.23;;;20.40;;
50225;SDS011;36113;50.742;6.432;2024-03-08T08:17:01;33.10;;;21.13;;
50225;SDS011;36113;50.742;6.432;2024-03-08T08:19:29;33.08;;;20.92;;
50225;SDS011;36113;50.742;6.432;2024-03-08T08:21:54;33.08;;;20.40;;
50225;SDS011;36113;50.742;6.432;2024-03-08T08:24:19;28.98;;;20.77;;
50225;SDS011;36113;50.742;6.432;2024-03-08T08:29:12;35.25;;;20.27;;
50225;SDS011;36113;50.742;6.432;2024-03-08T08:31:37;30.45;;;19.80;;
50225;SDS011;36113;50.742;6.432;2024-03-08T08:34:02;31.70;;;19.98;;
50225;SDS011;36113;50.742;6.432;2024-03-08T08:36:28;34.00;;;20.92;;
50225;SDS011;36113;50.742;6.432;2024-03-08T08:38:54;31.13;;;20.77;;
50225;SDS011;36113;50.742;6.432;2024-03-08T08:41:22;28.73;;;18.92;;
50225;SDS011;36113;50.742;6.432;2024-03-08T08:43:48;33.75;;;20.20;;
50225;SDS011;36113;50.742;6.432;2024-03-08T08:46:16;32.30;;;20.33;;
50225;SDS011;36113;50.742;6.432;2024-03-08T08:48:42;28.05;;;20.17;;
50225;SDS011;36113;50.742;6.432;2024-03-08T08:51:14;30.25;;;19.27;;
50225;SDS011;36113;50.742;6.432;2024-03-08T08:53:40;32.60;;;20.58;;
50225;SDS011;36113;50.742;6.432;2024-03-08T08:56:08;29.80;;;19.73;;
50225;SDS011;36113;50.742;6.432;2024-03-08T08:58:38;29.75;;;20.45;;
50225;SDS011;36113;50.742;6.432;2024-03-08T09:01:04;31.13;;;20.70;;
50225;SDS011;36113;50.742;6.432;2024-03-08T09:03:30;28.40;;;19.95;;
50225;SDS011;36113;50.742;6.432;2024-03-08T09:05:55;34.67;;;22.23;;
50225;SDS011;36113;50.742;6.432;2024-03-08T09:08:21;29.50;;;20.23;;
50225;SDS011;36113;50.742;6.432;2024-03-08T09:10:46;28.65;;;19.40;;
50225;SDS011;36113;50.742;6.432;2024-03-08T09:13:13;30.85;;;20.80;;
50225;SDS011;36113;50.742;6.432;2024-03-08T09:15:39;27.42;;;18.52;;
50225;SDS011;36113;50.742;6.432;2024-03-08T09:18:06;34.03;;;19.95;;
50225;SDS011;36113;50.742;6.432;2024-03-08T09:20:32;32.22;;;20.60;;
50225;SDS011;36113;50.742;6.432;2024-03-08T09:22:57;32.58;;;20.95;;
50225;SDS011;36113;50.742;6.432;2024-03-08T09:25:22;30.60;;;19.95;;
50225;SDS011;36113;50.742;6.432;2024-03-08T09:27:48;34.42;;;20.40;;
50225;SDS011;36113;50.742;6.432;2024-03-08T09:30:13;29.25;;;19.85;;
50225;SDS011;36113;50.742;6.432;2024-03-08T09:32:40;28.17;;;19.00;;
50225;SDS011;36113;50.742;6.432;2024-03-08T09:35:06;30.43;;;19.40;;
50225;SDS011;36113;50.742;6.432;2024-03-08T09:37:32;32.43;;;20.20;;
50225;SDS011;36113;50.742;6.432;2024-03-08T09:39:59;29.48;;;20.08;;
50225;SDS011;36113;50.742;6.432;2024-03-08T09:42:24;28.55;;;19.33;;
50225;SDS011;36113;50.742;6.432;2024-03-08T09:44:50;30.92;;;20.25;;
50225;SDS011;36113;50.742;6.432;2024-03-08T09:47:17;27.35;;;19.75;;
50225;SDS011;36113;50.742;6.432;2024-03-08T09:49:43;28.80;;;19.15;;
50225;SDS011;36113;50.742;6.432;2024-03-08T09:52:08;29.63;;;19.77;;
50225;SDS011;36113;50.742;6.432;2024-03-08T09:54:35;28.52;;;18.45;;
50225;SDS011;36113;50.742;6.432;2024-03-08T09:57:01;26.13;;;18.15;;
50225;SDS011;36113;50.742;6.432;2024-03-08T09:59:33;27.92;;;18.58;;
50225;SDS011;36113;50.742;6.432;2024-03-08T10:01:58;27.33;;;18.30;;
50225;SDS011;36113;50.742;6.432;2024-03-08T10:04:24;24.00;;;17.97;;
50225;SDS011;36113;50.742;6.432;2024-03-08T10:06:51;26.45;;;17.63;;
50225;SDS011;36113;50.742;6.432;2024-03-08T10:09:17;24.60;;;17.80;;
50225;SDS011;36113;50.742;6.432;2024-03-08T10:11:42;24.48;;;17.45;;
50225;SDS011;36113;50.742;6.432;2024-03-08T10:14:10;24.70;;;17.55;;
50225;SDS011;36113;50.742;6.432;2024-03-08T10:16:36;25.60;;;17.35;;
50225;SDS011;36113;50.742;6.432;2024-03-08T10:19:02;24.70;;;16.95;;
50225;SDS011;36113;50.742;6.432;2024-03-08T10:21:30;24.50;;;17.73;;
50225;SDS011;36113;50.742;6.432;2024-03-08T10:23:57;22.38;;;16.27;;
50225;SDS011;36113;50.742;6.432;2024-03-08T10:26:24;25.08;;;16.75;;
50225;SDS011;36113;50.742;6.432;2024-03-08T10:28:50;22.17;;;15.35;;
50225;SDS011;36113;50.742;6.432;2024-03-08T10:31:18;23.25;;;15.77;;
50225;SDS011;36113;50.742;6.432;2024-03-08T10:33:44;23.70;;;16.08;;
50225;SDS011;36113;50.742;6.432;2024-03-08T10:36:14;24.85;;;17.17;;
50225;SDS011;36113;50.742;6.432;2024-03-08T10:38:40;27.67;;;17.47;;
50225;SDS011;36113;50.742;6.432;2024-03-08T10:41:08;22.83;;;16.67;;
50225;SDS011;36113;50.742;6.432;2024-03-08T10:43:44;24.83;;;16.00;;
50225;SDS011;36113;50.742;6.432;2024-03-08T10:49:20;21.20;;;16.42;;
50225;SDS011;36113;50.742;6.432;2024-03-08T10:52:04;23.42;;;17.23;;
50225;SDS011;36113;50.742;6.432;2024-03-08T10:54:30;22.38;;;16.95;;
50225;SDS011;36113;50.742;6.432;2024-03-08T10:56:57;25.02;;;16.70;;
50225;SDS011;36113;50.742;6.432;2024-03-08T10:59:23;23.90;;;16.20;;
50225;SDS011;36113;50.742;6.432;2024-03-08T11:01:52;22.33;;;15.43;;
50225;SDS011;36113;50.742;6.432;2024-03-08T11:04:17;20.48;;;14.50;;
50225;SDS011;36113;50.742;6.432;2024-03-08T11:06:47;22.77;;;15.93;;
50225;SDS011;36113;50.742;6.432;2024-03-08T11:09:30;21.48;;;15.73;;
50225;SDS011;36113;50.742;6.432;2024-03-08T11:14:45;19.55;;;14.65;;
50225;SDS011;36113;50.742;6.432;2024-03-08T11:17:15;20.40;;;14.57;;
50225;SDS011;36113;50.742;6.432;2024-03-08T11:19:45;19.58;;;14.95;;
50225;SDS011;36113;50.742;6.432;2024-03-08T11:22:20;19.58;;;15.05;;
50225;SDS011;36113;50.742;6.432;2024-03-08T11:24:48;20.73;;;14.73;;
50225;SDS011;36113;50.742;6.432;2024-03-08T11:27:14;21.88;;;14.95;;
50225;SDS011;36113;50.742;6.432;2024-03-08T11:29:40;18.92;;;14.23;;
50225;SDS011;36113;50.742;6.432;2024-03-08T11:32:07;19.52;;;13.63;;
50225;SDS011;36113;50.742;6.432;2024-03-08T11:34:38;22.38;;;15.38;;
50225;SDS011;36113;50.742;6.432;2024-03-08T11:37:13;20.58;;;14.20;;
50225;SDS011;36113;50.742;6.432;2024-03-08T11:39:40;21.13;;;15.20;;
50225;SDS011;36113;50.742;6.432;2024-03-08T11:42:11;20.33;;;15.50;;
50225;SDS011;36113;50.742;6.432;2024-03-08T11:44:36;19.85;;;13.73;;
50225;SDS011;36113;50.742;6.432;2024-03-08T11:47:02;18.55;;;13.50;;
50225;SDS011;36113;50.742;6.432;2024-03-08T11:49:32;21.73;;;14.20;;
50225;SDS011;36113;50.742;6.432;2024-03-08T11:51:58;17.42;;;12.77;;
50225;SDS011;36113;50.742;6.432;2024-03-08T11:54:23;19.77;;;12.98;;
50225;SDS011;36113;50.742;6.432;2024-03-08T11:56:51;18.67;;;14.40;;
50225;SDS011;36113;50.742;6.432;2024-03-08T11:59:17;22.77;;;13.57;;
50225;SDS011;36113;50.742;6.432;2024-03-08T12:01:42;17.52;;;13.45;;
50225;SDS011;36113;50.742;6.432;2024-03-08T12:04:11;18.50;;;13.17;;
50225;SDS011;36113;50.742;6.432;2024-03-08T12:06:37;18.98;;;13.38;;
50225;SDS011;36113;50.742;6.432;2024-03-08T12:09:10;20.08;;;13.63;;
50225;SDS011;36113;50.742;6.432;2024-03-08T12:11:36;18.00;;;14.05;;
50225;SDS011;36113;50.742;6.432;2024-03-08T12:14:02;17.47;;;14.33;;
50225;SDS011;36113;50.742;6.432;2024-03-08T12:16:28;19.65;;;13.88;;
50225;SDS011;36113;50.742;6.432;2024-03-08T12:18:54;19.58;;;14.02;;
50225;SDS011;36113;50.742;6.432;2024-03-08T12:21:20;18.05;;;13.00;;
50225;SDS011;36113;50.742;6.432;2024-03-08T12:23:47;18.10;;;12.98;;
50225;SDS011;36113;50.742;6.432;2024-03-08T12:28:43;19.55;;;14.25;;
50225;SDS011;36113;50.742;6.432;2024-03-08T12:31:10;18.38;;;13.32;;
50225;SDS011;36113;50.742;6.432;2024-03-08T12:33:49;18.90;;;13.65;;
50225;SDS011;36113;50.742;6.432;2024-03-08T12:36:19;20.63;;;13.73;;
50225;SDS011;36113;50.742;6.432;2024-03-08T12:38:45;17.27;;;13.68;;
50225;SDS011;36113;50.742;6.432;2024-03-08T12:41:16;20.10;;;14.13;;
50225;SDS011;36113;50.742;6.432;2024-03-08T12:43:43;16.27;;;13.02;;
50225;SDS011;36113;50.742;6.432;2024-03-08T12:46:22;16.98;;;13.10;;
50225;SDS011;36113;50.742;6.432;2024-03-08T12:51:18;17.63;;;13.77;;
50225;SDS011;36113;50.742;6.432;2024-03-08T12:53:45;18.38;;;13.50;;
50225;SDS011;36113;50.742;6.432;2024-03-08T12:56:11;16.05;;;11.75;;
50225;SDS011;36113;50.742;6.432;2024-03-08T12:58:37;14.43;;;11.57;;
50225;SDS011;36113;50.742;6.432;2024-03-08T13:01:03;16.25;;;12.30;;
50225;SDS011;36113;50.742;6.432;2024-03-08T13:03:35;16.02;;;12.85;;
50225;SDS011;36113;50.742;6.432;2024-03-08T13:06:02;16.23;;;13.00;;
50225;SDS011;36113;50.742;6.432;2024-03-08T13:08:30;17.67;;;12.85;;
50225;SDS011;36113;50.742;6.432;2024-03-08T13:10:56;17.77;;;12.60;;
50225;SDS011;36113;50.742;6.432;2024-03-08T13:13:21;20.15;;;12.65;;
50225;SDS011;36113;50.742;6.432;2024-03-08T13:15:47;14.48;;;11.30;;
50225;SDS011;36113;50.742;6.432;2024-03-08T13:18:13;14.87;;;11.67;;
50225;SDS011;36113;50.742;6.432;2024-03-08T13:23:08;14.18;;;11.18;;
50225;SDS011;36113;50.742;6.432;2024-03-08T13:25:34;14.90;;;11.98;;
50225;SDS011;36113;50.742;6.432;2024-03-08T13:27:59;19.23;;;11.55;;
50225;SDS011;36113;50.742;6.432;2024-03-08T13:30:25;15.43;;;11.50;;
50225;SDS011;36113;50.742;6.432;2024-03-08T13:32:54;15.20;;;11.63;;
50225;SDS011;36113;50.742;6.432;2024-03-08T13:35:19;16.08;;;11.82;;
50225;SDS011;36113;50.742;6.432;2024-03-08T13:37:49;14.48;;;11.48;;
50225;SDS011;36113;50.742;6.432;2024-03-08T13:40:16;15.85;;;11.55;;
50225;SDS011;36113;50.742;6.432;2024-03-08T13:42:43;16.33;;;11.48;;
50225;SDS011;36113;50.742;6.432;2024-03-08T13:45:09;16.08;;;13.00;;
50225;SDS011;36113;50.742;6.432;2024-03-08T13:47:39;16.77;;;11.73;;
50225;SDS011;36113;50.742;6.432;2024-03-08T13:50:06;14.73;;;12.03;;
50225;SDS011;36113;50.742;6.432;2024-03-08T13:52:38;15.88;;;11.52;;
50225;SDS011;36113;50.742;6.432;2024-03-08T13:55:05;16.23;;;12.02;;
50225;SDS011;36113;50.742;6.432;2024-03-08T13:57:31;17.90;;;12.20;;
50225;SDS011;36113;50.742;6.432;2024-03-08T13:59:57;16.75;;;12.55;;
50225;SDS011;36113;50.742;6.432;2024-03-08T14:02:22;15.10;;;12.30;;
50225;SDS011;36113;50.742;6.432;2024-03-08T14:04:52;16.52;;;11.50;;
50225;SDS011;36113;50.742;6.432;2024-03-08T14:07:19;18.75;;;11.73;;
50225;SDS011;36113;50.742;6.432;2024-03-08T14:09:44;18.83;;;12.48;;
50225;SDS011;36113;50.742;6.432;2024-03-08T14:12:10;14.80;;;10.80;;
50225;SDS011;36113;50.742;6.432;2024-03-08T14:14:35;14.30;;;11.43;;
50225;SDS011;36113;50.742;6.432;2024-03-08T14:17:01;15.50;;;12.35;;
50225;SDS011;36113;50.742;6.432;2024-03-08T14:19:27;16.08;;;11.38;;
50225;SDS011;36113;50.742;6.432;2024-03-08T14:21:53;18.50;;;12.50;;
50225;SDS011;36113;50.742;6.432;2024-03-08T14:24:19;14.90;;;11.48;;
50225;SDS011;36113;50.742;6.432;2024-03-08T14:26:45;18.43;;;12.93;;
50225;SDS011;36113;50.742;6.432;2024-03-08T14:29:11;15.95;;;12.23;;
50225;SDS011;36113;50.742;6.432;2024-03-08T14:31:37;17.43;;;11.83;;
50225;SDS011;36113;50.742;6.432;2024-03-08T14:34:03;15.68;;;11.63;;
50225;SDS011;36113;50.742;6.432;2024-03-08T14:36:31;16.83;;;11.85;;
50225;SDS011;36113;50.742;6.432;2024-03-08T14:38:56;14.23;;;11.57;;
50225;SDS011;36113;50.742;6.432;2024-03-08T14:41:22;19.98;;;12.43;;
50225;SDS011;36113;50.742;6.432;2024-03-08T14:43:47;15.10;;;12.15;;
50225;SDS011;36113;50.742;6.432;2024-03-08T14:46:13;18.88;;;11.30;;